Time;durP1;ratioP1;P1;durP2;ratioP2;P2;SDS_P1;SDS_P2;PMS_P1;PMS_P2;Temp;Humidity;BMP_temperature;BMP_pressure;BME280_temperature;BME280_humidity;BME280_pressure;Samples;Min_cycle;Max_cycle;Signal;HPM_P1;HPM_P2
2023/08/21 00:03:45;;;;;;;8.43;4.70;;;;;;;21.61;100.00;101184.31;8363070;28;20439;-62
2023/08/21 00:07:50;;;;;;;8.50;5.47;;;;;;;21.59;100.00;101183.66;8373598;28;20040;-62
2023/08/21 00:11:51;;;;;;;12.00;4.93;;;;;;;21.48;100.00;101169.56;8369987;28;20045;-62
2023/08/21 00:15:52;;;;;;;6.68;4.97;;;;;;;21.50;100.00;101176.56;8372141;28;20044;-62
2023/08/21 00:19:52;;;;;;;8.85;4.45;;;;;;;21.31;100.00;101171.69;8372378;28;20086;-62
2023/08/21 00:23:53;;;;;;;8.38;4.55;;;;;;;21.23;100.00;101163.59;8372286;28;20051;-62
2023/08/21 00:27:53;;;;;;;8.80;4.55;;;;;;;21.13;100.00;101168.50;8404800;28;20052;-62
2023/08/21 00:31:53;;;;;;;7.28;4.82;;;;;;;21.17;100.00;101172.59;8370540;28;20033;-62
2023/08/21 00:35:56;;;;;;;11.38;4.75;;;;;;;21.20;100.00;101169.47;8371548;28;20557;-62
2023/08/21 00:39:57;;;;;;;19.73;6.18;;;;;;;21.33;100.00;101169.63;8371853;28;20723;-62
2023/08/21 00:43:58;;;;;;;11.13;4.40;;;;;;;21.50;100.00;101168.31;8371918;28;20041;-60
2023/08/21 00:47:59;;;;;;;10.13;4.75;;;;;;;21.39;100.00;101160.59;8376253;28;20043;-62
2023/08/21 00:52:01;;;;;;;13.95;4.60;;;;;;;21.41;100.00;101172.25;8372283;28;20044;-62
2023/08/21 00:56:02;;;;;;;7.72;4.57;;;;;;;21.39;100.00;101168.84;8371360;28;20161;-61
2023/08/21 01:00:04;;;;;;;7.93;3.67;;;;;;;21.30;100.00;101161.75;8371131;28;20036;-57
2023/08/21 01:04:04;;;;;;;5.20;3.47;;;;;;;21.40;100.00;101162.28;8367751;28;20036;-57
2023/08/21 01:08:14;;;;;;;10.60;4.03;;;;;;;21.38;100.00;101162.47;8367288;28;20053;-57
2023/08/21 01:12:41;;;;;;;11.07;4.38;;;;;;;21.43;100.00;101169.31;8365708;28;20033;-57
2023/08/21 01:16:43;;;;;;;12.18;3.63;;;;;;;21.29;100.00;101160.06;8368144;28;20127;-57
2023/08/21 01:20:44;;;;;;;9.35;4.60;;;;;;;21.29;100.00;101158.13;8370375;28;20047;-57
2023/08/21 01:24:44;;;;;;;5.65;3.83;;;;;;;21.35;100.00;101162.88;8366369;28;20043;-57
2023/08/21 01:28:45;;;;;;;10.85;4.32;;;;;;;21.32;100.00;101167.91;8367062;28;20421;-59
2023/08/21 01:33:11;;;;;;;6.70;4.25;;;;;;;21.43;100.00;101174.81;8361315;28;20304;-58
2023/08/21 01:37:12;;;;;;;10.23;4.03;;;;;;;21.44;100.00;101177.38;8365630;28;20043;-58
2023/08/21 01:41:12;;;;;;;12.38;4.32;;;;;;;21.20;100.00;101174.97;8370326;28;20136;-58
2023/08/21 01:45:13;;;;;;;5.35;4.03;;;;;;;20.87;100.00;101173.66;8365469;28;20387;-59
2023/08/21 01:49:13;;;;;;;9.63;4.32;;;;;;;20.69;100.00;101170.44;8362059;28;20045;-60
2023/08/21 01:53:14;;;;;;;8.10;4.10;;;;;;;20.75;100.00;101175.19;8365281;28;20056;-61
2023/08/21 01:57:14;;;;;;;8.90;4.60;;;;;;;20.94;100.00;101171.84;8369427;28;20060;-61
2023/08/21 02:01:15;;;;;;;9.02;4.13;;;;;;;20.60;100.00;101171.56;8364312;28;20518;-62
2023/08/21 02:05:15;;;;;;;11.20;4.30;;;;;;;20.73;100.00;101171.75;8363140;28;20052;-62
2023/08/21 02:09:16;;;;;;;8.55;4.28;;;;;;;20.64;100.00;101161.91;8363269;28;20045;-56
2023/08/21 02:13:18;;;;;;;5.35;3.90;;;;;;;20.41;100.00;101166.66;8367301;28;20339;-58
2023/08/21 02:17:19;;;;;;;8.35;4.40;;;;;;;20.36;100.00;101153.47;8367535;28;20400;-56
2023/08/21 02:21:20;;;;;;;14.45;5.20;;;;;;;20.76;100.00;101165.88;8366093;28;20040;-56
2023/08/21 02:25:21;;;;;;;8.98;4.38;;;;;;;20.85;100.00;101173.00;8371256;28;20041;-57
2023/08/21 02:29:21;;;;;;;13.00;4.53;;;;;;;20.83;100.00;101172.34;8368733;28;20390;-57
2023/08/21 02:33:21;;;;;;;7.70;4.07;;;;;;;20.97;100.00;101177.00;8355933;28;20041;-57
2023/08/21 02:37:22;;;;;;;9.40;4.97;;;;;;;21.10;100.00;101179.91;8354245;28;20037;-57
2023/08/21 02:41:23;;;;;;;11.15;4.28;;;;;;;21.23;100.00;101175.41;8376848;28;20066;-56
2023/08/21 02:45:23;;;;;;;10.23;4.00;;;;;;;21.10;100.00;101174.41;8379873;28;20046;-57
2023/08/21 02:49:24;;;;;;;6.28;4.45;;;;;;;21.31;100.00;101171.69;8382950;28;20115;-57
2023/08/21 02:53:24;;;;;;;9.13;4.00;;;;;;;20.91;100.00;101172.22;8382763;28;20611;-56
2023/08/21 02:57:26;;;;;;;6.53;3.70;;;;;;;21.05;100.00;101177.72;8385377;28;20127;-55
2023/08/21 03:01:27;;;;;;;9.20;4.00;;;;;;;21.11;100.00;101181.63;8381466;28;20087;-56
2023/08/21 03:05:28;;;;;;;11.32;3.58;;;;;;;20.84;100.00;101171.28;8391063;28;20040;-56
2023/08/21 03:09:28;;;;;;;9.63;4.15;;;;;;;20.79;100.00;101171.00;8391061;28;20384;-57
2023/08/21 03:13:29;;;;;;;8.68;4.03;;;;;;;20.59;100.00;101170.72;8389486;28;20398;-57
2023/08/21 03:17:29;;;;;;;8.77;3.65;;;;;;;20.29;100.00;101162.66;8391784;28;20028;-57
2023/08/21 03:21:30;;;;;;;7.25;4.75;;;;;;;20.30;100.00;101158.84;8392827;28;20053;-61
2023/08/21 03:25:32;;;;;;;11.98;4.68;;;;;;;20.40;100.00;101164.97;8394502;28;20048;-61
2023/08/21 03:29:33;;;;;;;7.47;3.75;;;;;;;20.49;100.00;101181.13;8394986;28;20036;-62
2023/08/21 03:33:34;;;;;;;13.48;3.65;;;;;;;20.40;100.00;101174.03;8394122;28;20036;-62
2023/08/21 03:37:34;;;;;;;9.18;4.25;;;;;;;20.61;100.00;101168.66;8394142;28;20040;-62
2023/08/21 03:41:35;;;;;;;9.70;3.30;;;;;;;20.53;100.00;101166.00;8394361;28;20047;-62
2023/08/21 03:45:36;;;;;;;7.70;3.70;;;;;;;20.35;100.00;101159.16;8389941;28;20111;-62
2023/08/21 03:49:38;;;;;;;7.70;3.67;;;;;;;20.19;100.00;101162.09;8390588;28;20056;-62
2023/08/21 03:53:38;;;;;;;10.57;4.18;;;;;;;20.34;100.00;101160.22;8386126;28;20044;-62
2023/08/21 03:57:39;;;;;;;8.18;4.50;;;;;;;20.37;100.00;101163.41;8414430;28;20040;-61
2023/08/21 04:01:40;;;;;;;9.85;4.13;;;;;;;20.28;100.00;101155.47;8392486;28;20044;-61
2023/08/21 04:05:40;;;;;;;9.60;3.95;;;;;;;20.23;100.00;101152.41;8393394;28;20036;-61
2023/08/21 04:09:41;;;;;;;6.93;3.60;;;;;;;20.37;100.00;101154.34;8366706;28;20048;-61
2023/08/21 04:13:41;;;;;;;9.50;3.75;;;;;;;20.02;100.00;101160.47;8375848;28;20537;-61
2023/08/21 04:17:41;;;;;;;5.45;3.70;;;;;;;19.81;100.00;101163.06;8376602;28;20065;-61
2023/08/21 04:21:42;;;;;;;6.97;3.80;;;;;;;20.05;100.00;101171.97;8380415;28;20062;-61
2023/08/21 04:26:03;;;;;;;11.63;3.88;;;;;;;20.06;100.00;101181.06;8376218;27;20043;-59
2023/08/21 04:30:05;;;;;;;10.85;3.47;;;;;;;20.07;100.00;101174.53;8366295;28;20485;-58
2023/08/21 04:34:06;;;;;;;10.82;4.50;;;;;;;19.75;100.00;101172.91;8371884;28;20040;-58
2023/08/21 04:38:07;;;;;;;10.43;4.60;;;;;;;19.78;100.00;101182.66;8359617;28;20445;-58
2023/08/21 04:42:09;;;;;;;10.02;4.05;;;;;;;20.16;100.00;101178.94;8366399;28;20091;-58
2023/08/21 04:46:09;;;;;;;9.00;4.35;;;;;;;20.35;100.00;101189.38;8362382;28;20053;-58
2023/08/21 04:50:12;;;;;;;6.70;3.80;;;;;;;20.13;100.00;101190.28;8374041;28;20044;-58
2023/08/21 04:54:13;;;;;;;6.57;3.63;;;;;;;19.95;100.00;101198.81;8375140;28;20039;-58
2023/08/21 04:58:14;;;;;;;9.30;4.13;;;;;;;19.86;100.00;101193.56;8373691;28;20415;-58
2023/08/21 05:02:15;;;;;;;11.23;3.92;;;;;;;19.87;100.00;101196.13;8372110;28;20066;-58
2023/08/21 05:06:16;;;;;;;8.75;3.85;;;;;;;20.02;100.00;101209.91;8365546;28;20041;-58
2023/08/21 05:10:16;;;;;;;15.10;4.43;;;;;;;20.13;100.00;101213.09;8381740;28;20036;-60
2023/08/21 05:14:19;;;;;;;12.90;4.38;;;;;;;20.47;100.00;101204.38;8360317;28;20345;-61
2023/08/21 05:18:21;;;;;;;16.20;4.18;;;;;;;20.69;100.00;101208.91;8367341;28;20239;-60
2023/08/21 05:22:22;;;;;;;15.02;4.03;;;;;;;20.67;100.00;101205.50;8369659;28;20063;-61
2023/08/21 05:26:22;;;;;;;13.73;3.85;;;;;;;20.79;100.00;101204.84;8364904;28;20413;-63
2023/08/21 05:30:23;;;;;;;10.25;3.65;;;;;;;20.98;100.00;101208.97;8371700;28;20394;-62
2023/08/21 05:34:25;;;;;;;9.60;3.85;;;;;;;21.29;100.00;101209.56;8375994;28;20194;-63
2023/08/21 05:38:26;;;;;;;11.07;4.80;;;;;;;21.85;100.00;101207.88;8369683;28;20516;-61
2023/08/21 05:42:26;;;;;;;14.35;3.72;;;;;;;21.81;100.00;101218.47;8371001;28;20400;-59
2023/08/21 05:46:27;;;;;;;14.20;3.55;;;;;;;21.79;100.00;101215.03;8369274;28;20041;-59
2023/08/21 05:50:28;;;;;;;14.73;3.70;;;;;;;21.89;100.00;101221.06;8371187;28;20498;-57
2023/08/21 05:54:30;;;;;;;9.68;3.55;;;;;;;21.94;100.00;101224.09;8373333;28;20090;-57
2023/08/21 05:58:32;;;;;;;9.68;3.35;;;;;;;22.13;100.00;101226.16;8375137;28;20048;-58
2023/08/21 06:02:33;;;;;;;13.27;3.25;;;;;;;22.17;100.00;101224.72;8369467;28;20131;-60
2023/08/21 06:06:35;;;;;;;15.98;4.13;;;;;;;22.30;100.00;101229.50;8373555;28;20052;-59
2023/08/21 06:10:36;;;;;;;13.00;3.90;;;;;;;22.52;100.00;101226.53;8366622;28;20124;-62
2023/08/21 06:14:37;;;;;;;13.60;3.50;;;;;;;22.81;98.47;101234.56;8398778;28;20083;-61
2023/08/21 06:18:38;;;;;;;10.70;3.40;;;;;;;23.05;95.09;101236.84;8373423;28;20499;-58
2023/08/21 06:22:39;;;;;;;11.05;3.55;;;;;;;23.43;92.66;101245.56;8372679;28;20445;-59
2023/08/21 06:26:40;;;;;;;9.70;3.55;;;;;;;23.42;90.54;101237.50;8372880;28;20037;-59
2023/08/21 06:30:41;;;;;;;12.65;3.72;;;;;;;23.44;89.54;101243.63;8370445;28;20083;-59
2023/08/21 06:34:41;;;;;;;11.25;3.53;;;;;;;23.57;89.80;101246.47;8371008;28;20036;-59
2023/08/21 06:38:44;;;;;;;12.70;3.65;;;;;;;23.70;89.94;101257.56;8376018;28;20116;-59
2023/08/21 06:42:45;;;;;;;9.13;3.22;;;;;;;23.79;89.47;101250.78;8371757;28;20044;-59
2023/08/21 06:46:45;;;;;;;13.20;3.80;;;;;;;24.08;89.57;101255.97;8368824;28;20558;-59
2023/08/21 06:50:46;;;;;;;14.30;3.78;;;;;;;24.53;85.88;101256.00;8367381;28;20028;-61
2023/08/21 06:54:46;;;;;;;8.48;3.30;;;;;;;24.34;85.79;101254.06;8376012;28;20033;-61
2023/08/21 06:58:46;;;;;;;11.82;3.95;;;;;;;24.51;86.27;101257.25;8371119;28;20517;-62
2023/08/21 07:02:47;;;;;;;8.75;3.88;;;;;;;24.69;85.55;101249.19;8368856;28;20068;-61
2023/08/21 07:06:48;;;;;;;12.70;4.13;;;;;;;25.10;84.61;101247.00;8372429;28;20037;-61
2023/08/21 07:10:48;;;;;;;10.18;4.25;;;;;;;25.07;83.23;101241.91;8375323;28;20037;-62
2023/08/21 07:14:49;;;;;;;10.07;3.85;;;;;;;25.23;82.24;101252.50;8371837;28;20037;-62
2023/08/21 07:18:49;;;;;;;10.95;3.95;;;;;;;25.39;82.29;101245.63;8369934;28;20517;-61
2023/08/21 07:22:50;;;;;;;13.30;4.35;;;;;;;25.74;79.81;101238.66;8374812;28;20128;-62
2023/08/21 07:26:50;;;;;;;10.95;4.00;;;;;;;25.62;80.62;101254.28;8376163;28;20470;-61
2023/08/21 07:30:58;;;;;;;7.53;3.22;;;;;;;25.74;82.63;101249.75;8367549;28;20048;-58
2023/08/21 07:34:58;;;;;;;11.52;4.72;;;;;;;25.63;81.17;101248.53;8372232;28;20410;-58
2023/08/21 07:38:59;;;;;;;12.32;3.95;;;;;;;25.90;79.84;101250.09;8371191;28;20033;-60
2023/08/21 07:42:59;;;;;;;11.40;5.38;;;;;;;26.07;78.21;101256.81;8376244;28;20041;-61
2023/08/21 07:47:00;;;;;;;13.60;4.55;;;;;;;25.76;79.67;101265.06;8374381;28;20054;-62
2023/08/21 07:51:00;;;;;;;22.33;5.32;;;;;;;25.96;79.77;101265.81;8380246;27;20049;-61
2023/08/21 07:55:02;;;;;;;13.45;5.28;;;;;;;26.25;77.82;101259.66;8400382;28;20040;-62
2023/08/21 07:59:06;;;;;;;9.32;4.53;;;;;;;26.05;79.24;101270.06;8377429;28;20658;-62
2023/08/21 08:03:06;;;;;;;13.63;4.03;;;;;;;25.90;78.76;101271.41;8369406;28;20071;-59
2023/08/21 08:07:07;;;;;;;15.48;4.10;;;;;;;26.00;77.54;101264.31;8377892;28;20572;-60
2023/08/21 08:11:08;;;;;;;15.18;4.63;;;;;;;25.95;78.18;101275.19;8381550;28;20102;-59
2023/08/21 08:15:09;;;;;;;15.02;5.80;;;;;;;26.05;76.70;101269.19;8377329;28;20041;-60
2023/08/21 08:19:09;;;;;;;14.27;6.30;;;;;;;26.01;76.10;101263.25;8373166;28;20086;-59
2023/08/21 08:23:09;;;;;;;18.63;6.82;;;;;;;25.95;76.55;101266.88;8376615;28;20060;-60
2023/08/21 08:27:10;;;;;;;14.00;7.30;;;;;;;26.25;76.40;101265.22;8380392;28;20037;-59
2023/08/21 08:31:16;;;;;;;15.52;6.07;;;;;;;26.49;76.75;101269.94;8380053;28;20037;-60
2023/08/21 08:35:16;;;;;;;14.40;5.65;;;;;;;26.51;75.59;101256.69;8375504;28;20041;-59
2023/08/21 08:39:17;;;;;;;14.85;6.10;;;;;;;26.59;75.46;101259.16;8376189;28;20033;-60
2023/08/21 08:43:18;;;;;;;16.75;6.40;;;;;;;26.63;74.75;101254.88;8376924;28;20280;-58
2023/08/21 08:47:19;;;;;;;15.52;5.80;;;;;;;26.86;74.33;101261.75;8375615;28;20379;-59
2023/08/21 08:51:20;;;;;;;9.20;4.72;;;;;;;27.08;74.49;101255.50;8380149;28;20103;-61
2023/08/21 08:55:21;;;;;;;13.02;6.70;;;;;;;27.48;75.44;101267.91;8375626;28;20094;-62
2023/08/21 08:59:21;;;;;;;15.23;5.70;;;;;;;27.20;74.88;101263.94;8372079;28;20037;-62
2023/08/21 09:03:22;;;;;;;14.90;5.95;;;;;;;27.39;74.23;101257.34;8377814;28;20090;-60
2023/08/21 09:07:22;;;;;;;10.05;5.20;;;;;;;27.24;74.05;101265.16;8372495;28;20068;-60
2023/08/21 09:11:23;;;;;;;13.13;6.43;;;;;;;27.13;73.55;101274.25;8375427;28;20039;-59
2023/08/21 09:15:29;;;;;;;12.35;6.72;;;;;;;27.14;73.61;101273.19;8379104;28;20044;-58
2023/08/21 09:19:30;;;;;;;10.25;4.93;;;;;;;27.61;75.90;101275.22;8373994;28;20071;-59
2023/08/21 09:23:30;;;;;;;10.00;6.75;;;;;;;27.64;71.99;101271.97;8375937;28;20052;-59
2023/08/21 09:27:31;;;;;;;9.77;6.05;;;;;;;27.77;73.21;101282.91;8367804;28;20045;-59
2023/08/21 09:31:33;;;;;;;14.52;6.95;;;;;;;27.87;73.47;101272.97;8374660;28;20091;-59
2023/08/21 09:35:33;;;;;;;19.52;7.13;;;;;;;27.70;74.05;101271.03;8365931;28;20037;-59
2023/08/21 09:39:35;;;;;;;18.58;7.32;;;;;;;28.19;74.13;101282.75;8374455;28;20047;-59
2023/08/21 09:43:42;;;;;;;10.73;5.35;;;;;;;28.98;70.07;101270.31;8374395;28;20044;-59
2023/08/21 09:47:43;;;;;;;12.73;5.72;;;;;;;30.27;66.49;101271.47;8374208;28;20044;-59
2023/08/21 09:51:44;;;;;;;13.88;6.43;;;;;;;31.29;64.12;101275.72;8373671;28;20079;-59
2023/08/21 09:55:46;;;;;;;13.93;6.05;;;;;;;33.11;58.99;101269.88;8374397;28;20041;-59
2023/08/21 09:59:48;;;;;;;12.63;5.03;;;;;;;33.51;57.96;101270.13;8372695;28;20033;-60
2023/08/21 10:03:49;;;;;;;11.88;6.22;;;;;;;33.81;56.64;101269.38;8347269;28;20124;-59
2023/08/21 10:07:51;;;;;;;9.00;6.93;;;;;;;33.18;55.69;101264.84;8357872;28;20041;-60
2023/08/21 10:11:53;;;;;;;17.05;7.10;;;;;;;34.13;54.23;101267.28;8368341;28;20041;-59
2023/08/21 10:15:54;;;;;;;8.10;5.80;;;;;;;33.55;55.48;101265.66;8370371;28;20028;-60
2023/08/21 10:19:54;;;;;;;13.38;5.38;;;;;;;34.68;54.49;101252.47;8356320;28;20083;-59
2023/08/21 10:23:56;;;;;;;14.63;7.10;;;;;;;34.91;54.50;101263.16;8354777;28;20461;-60
2023/08/21 10:27:59;;;;;;;12.57;6.25;;;;;;;34.65;55.23;101255.84;8357444;28;20120;-60
2023/08/21 10:32:03;;;;;;;13.13;7.10;;;;;;;34.92;53.57;101259.22;8359240;28;20028;-60
2023/08/21 10:36:03;;;;;;;12.77;6.90;;;;;;;35.21;52.60;101258.31;8365517;28;20825;-60
2023/08/21 10:40:04;;;;;;;15.52;6.80;;;;;;;34.45;52.63;101244.63;8364901;28;20040;-60
2023/08/21 10:44:06;;;;;;;14.70;6.60;;;;;;;34.63;52.81;101249.63;8377005;28;20190;-60
2023/08/21 10:48:07;;;;;;;14.07;7.05;;;;;;;35.21;51.34;101251.84;8356082;28;20075;-60
2023/08/21 10:52:08;;;;;;;13.75;7.50;;;;;;;35.52;50.88;101253.44;8369641;28;20044;-60
2023/08/21 10:56:09;;;;;;;13.32;7.45;;;;;;;35.53;51.01;101255.16;8356703;28;20033;-60
2023/08/21 11:00:13;;;;;;;11.73;6.97;;;;;;;34.08;54.58;101250.41;8364390;28;20048;-60
2023/08/21 11:04:14;;;;;;;;;;;;;;;34.59;52.44;101248.53;8364548;28;20497;-61
2023/08/21 11:08:14;;;;;;;13.15;7.47;;;;;;;34.82;52.62;101236.72;8377986;28;19966;-60
2023/08/21 11:12:17;;;;;;;11.80;7.00;;;;;;;33.99;53.24;101249.28;8365318;28;20048;-59
2023/08/21 11:16:17;;;;;;;12.67;6.87;;;;;;;31.99;57.30;101255.09;8371899;28;20026;-59
2023/08/21 11:20:18;;;;;;;13.05;7.93;;;;;;;33.07;55.61;101243.50;8372486;28;20521;-60
2023/08/21 11:24:18;;;;;;;10.45;7.38;;;;;;;34.26;53.39;101249.03;8374708;28;20048;-59
2023/08/21 11:28:19;;;;;;;11.18;7.32;;;;;;;33.43;54.68;101247.38;8374386;28;20044;-60
2023/08/21 11:32:22;;;;;;;10.70;7.22;;;;;;;32.69;56.20;101248.50;8372405;28;20032;-59
2023/08/21 11:36:23;;;;;;;17.17;7.60;;;;;;;32.41;59.61;101254.44;8377787;28;20037;-59
2023/08/21 11:40:23;;;;;;;11.98;6.38;;;;;;;33.01;56.16;101252.97;8377259;28;20271;-59
2023/08/21 11:44:24;;;;;;;12.25;6.78;;;;;;;35.12;52.17;101253.53;8378526;28;20578;-59
2023/08/21 11:48:24;;;;;;;18.35;6.60;;;;;;;34.21;53.44;101251.84;8375302;28;20036;-59
2023/08/21 11:52:26;;;;;;;12.57;5.50;;;;;;;32.68;56.24;101252.41;8375138;28;20106;-60
2023/08/21 11:56:29;;;;;;;13.93;6.53;;;;;;;32.61;57.19;101247.06;8375810;28;20039;-60
2023/08/21 12:00:30;;;;;;;9.40;5.03;;;;;;;32.62;56.26;101254.34;8376582;28;20043;-59
2023/08/21 12:04:30;;;;;;;12.02;5.55;;;;;;;31.52;58.01;101241.91;8368075;28;20033;-59
2023/08/21 12:08:31;;;;;;;7.32;4.40;;;;;;;31.95;58.59;101241.88;8377160;28;20037;-61
2023/08/21 12:12:31;;;;;;;7.40;3.60;;;;;;;31.95;59.33;101241.88;8373241;28;20037;-62
2023/08/21 12:16:32;;;;;;;8.25;4.28;;;;;;;32.29;57.85;101232.16;8362740;28;20383;-62
2023/08/21 12:20:33;;;;;;;9.95;4.18;;;;;;;31.21;58.95;101223.03;8369173;28;20099;-62
2023/08/21 12:24:34;;;;;;;10.77;4.18;;;;;;;30.38;59.24;101218.34;8363489;28;20131;-61
2023/08/21 12:28:35;;;;;;;8.07;3.78;;;;;;;30.12;60.21;101218.13;8376677;28;20033;-62
2023/08/21 12:32:35;;;;;;;6.95;3.28;;;;;;;30.67;59.83;101209.91;8370795;28;20036;-62
2023/08/21 12:36:36;;;;;;;6.13;3.67;;;;;;;30.42;59.57;101210.34;8376328;28;20037;-62
2023/08/21 12:40:37;;;;;;;8.73;3.17;;;;;;;30.33;60.35;101215.50;8359453;28;20128;-61
2023/08/21 12:44:38;;;;;;;12.93;3.10;;;;;;;30.09;57.58;101208.34;8372250;28;20041;-62
2023/08/21 12:48:39;;;;;;;7.68;2.90;;;;;;;30.07;58.40;101204.94;8379754;28;20126;-61
2023/08/21 12:52:41;;;;;;;4.80;2.42;;;;;;;30.01;58.66;101200.38;8374635;28;20037;-61
2023/08/21 12:56:41;;;;;;;7.93;2.92;;;;;;;30.11;57.63;101208.09;8392445;28;20047;-61
2023/08/21 13:00:42;;;;;;;6.03;1.80;;;;;;;30.24;56.06;101208.66;8391893;28;20046;-61
2023/08/21 13:04:42;;;;;;;8.18;2.70;;;;;;;30.66;60.20;101213.78;8391275;28;20044;-61
2023/08/21 13:08:43;;;;;;;5.80;2.70;;;;;;;30.86;59.17;101209.38;8391888;28;20044;-62
2023/08/21 13:12:43;;;;;;;7.45;2.65;;;;;;;31.02;58.49;101193.69;8391464;28;20028;-61
2023/08/21 13:16:44;;;;;;;11.45;3.60;;;;;;;30.31;59.29;101205.69;8391985;28;20047;-61
2023/08/21 13:20:44;;;;;;;8.98;4.00;;;;;;;30.40;58.03;101205.00;8391558;28;20529;-60
2023/08/21 13:24:45;;;;;;;10.18;3.50;;;;;;;29.88;59.53;101199.84;8372968;28;20524;-61
2023/08/21 13:28:45;;;;;;;13.90;3.58;;;;;;;29.88;59.74;101200.69;8373353;28;20037;-62
2023/08/21 13:32:46;;;;;;;11.30;3.10;;;;;;;29.99;59.92;101198.94;8390481;28;20135;-61
2023/08/21 13:36:46;;;;;;;9.07;2.33;;;;;;;30.49;59.00;101197.03;8391320;28;20085;-61
2023/08/21 13:40:46;;;;;;;4.40;2.08;;;;;;;30.26;57.42;101189.72;8389188;28;20550;-61
2023/08/21 13:44:47;;;;;;;9.57;2.60;;;;;;;30.29;57.08;101192.00;8387139;28;20472;-61
2023/08/21 13:48:47;;;;;;;11.15;2.10;;;;;;;30.49;58.39;101180.28;8390769;28;20040;-61
2023/08/21 13:52:48;;;;;;;6.38;2.25;;;;;;;30.18;58.70;101183.66;8389922;28;20028;-59
2023/08/21 13:56:48;;;;;;;10.85;2.75;;;;;;;30.21;57.73;101178.44;8390904;28;20070;-59
2023/08/21 14:00:49;;;;;;;11.00;2.60;;;;;;;30.25;58.53;101165.69;8390329;28;20036;-59
2023/08/21 14:04:50;;;;;;;5.18;2.45;;;;;;;30.09;58.57;101169.28;8389931;28;20524;-59
2023/08/21 14:08:50;;;;;;;7.75;2.20;;;;;;;30.14;58.67;101163.81;8390778;28;20387;-59
2023/08/21 14:12:51;;;;;;;6.57;2.15;;;;;;;30.08;57.71;101164.81;8390189;28;20055;-59
2023/08/21 14:16:51;;;;;;;5.28;1.83;;;;;;;30.27;56.81;101155.13;8390156;28;20058;-59
2023/08/21 14:20:51;;;;;;;5.72;1.70;;;;;;;30.22;57.19;101157.81;8388216;28;20387;-59
2023/08/21 14:24:52;;;;;;;6.45;1.85;;;;;;;30.13;56.45;101164.06;8387109;28;20402;-59
2023/08/21 14:28:52;;;;;;;7.90;1.65;;;;;;;30.07;56.64;101157.53;8387343;28;20040;-59
2023/08/21 14:32:53;;;;;;;7.32;1.67;;;;;;;30.38;56.07;101154.16;8389373;28;20127;-59
2023/08/21 14:36:56;;;;;;;3.67;1.38;;;;;;;29.95;56.37;101144.75;8385497;28;20177;-59
2023/08/21 14:40:57;;;;;;;8.80;1.73;;;;;;;30.04;56.59;101149.66;8383713;28;20036;-60
2023/08/21 14:44:57;;;;;;;4.00;1.38;;;;;;;29.92;55.99;101146.09;8384103;28;20066;-59
2023/08/21 14:48:58;;;;;;;3.58;1.58;;;;;;;29.99;57.00;101152.38;8384813;28;20032;-58
2023/08/21 14:52:58;;;;;;;10.90;2.00;;;;;;;30.22;57.35;101152.22;8375147;28;20045;-59
2023/08/21 14:56:59;;;;;;;7.97;1.70;;;;;;;30.05;57.43;101136.56;8386111;28;20037;-59
2023/08/21 15:00:59;;;;;;;5.28;1.60;;;;;;;29.91;57.18;101138.84;8390427;28;20040;-59
2023/08/21 15:05:04;;;;;;;5.55;1.45;;;;;;;29.78;57.11;101136.38;8391911;28;20119;-59
2023/08/21 15:09:06;;;;;;;3.38;1.25;;;;;;;30.06;57.68;101133.53;8387111;28;20040;-59
2023/08/21 15:13:07;;;;;;;8.50;1.27;;;;;;;30.06;56.58;101127.94;8390215;28;20043;-59
2023/08/21 15:17:07;;;;;;;4.13;1.23;;;;;;;30.09;56.60;101126.56;8391290;28;20486;-59
2023/08/21 15:21:08;;;;;;;6.97;1.25;;;;;;;30.07;57.21;101118.47;8390189;28;20048;-59
2023/08/21 15:25:09;;;;;;;6.30;1.35;;;;;;;30.03;57.13;101114.50;8391064;28;20115;-59
2023/08/21 15:29:09;;;;;;;4.10;1.33;;;;;;;29.91;57.82;101105.38;8391425;28;20131;-60
2023/08/21 15:33:10;;;;;;;3.95;1.20;;;;;;;29.87;58.16;101111.69;8390465;28;20275;-59
2023/08/21 15:37:10;;;;;;;3.33;1.15;;;;;;;29.71;57.62;101118.09;8390338;28;20036;-60
2023/08/21 15:41:11;;;;;;;6.10;1.38;;;;;;;29.63;57.91;101113.78;8389250;28;20173;-59
2023/08/21 15:45:11;;;;;;;4.07;1.55;;;;;;;29.68;58.08;101111.09;8374203;28;20161;-59
2023/08/21 15:49:12;;;;;;;4.38;1.20;;;;;;;29.60;58.62;101102.25;8372408;28;20403;-59
2023/08/21 15:53:13;;;;;;;8.18;1.20;;;;;;;29.58;58.83;101096.91;8380078;28;20043;-59
2023/08/21 15:57:14;;;;;;;6.95;1.98;;;;;;;29.46;58.28;101096.13;8384886;28;20082;-60
2023/08/21 16:01:14;;;;;;;8.10;1.52;;;;;;;29.34;59.17;101092.59;8383297;28;20040;-60
2023/08/21 16:05:15;;;;;;;4.30;1.52;;;;;;;29.51;58.57;101093.47;8381993;28;20556;-60
2023/08/21 16:09:18;;;;;;;4.15;0.95;;;;;;;29.51;59.33;101095.38;8381884;28;20036;-59
2023/08/21 16:13:18;;;;;;;4.65;0.90;;;;;;;29.58;59.27;101091.34;8386101;28;20036;-61
2023/08/21 16:17:20;;;;;;;2.72;1.08;;;;;;;29.54;58.75;101098.53;8383882;28;20039;-60
2023/08/21 16:21:20;;;;;;;4.68;1.38;;;;;;;29.54;59.15;101092.97;8387796;28;20249;-60
2023/08/21 16:25:21;;;;;;;5.82;1.60;;;;;;;29.35;59.49;101085.91;8386153;28;20044;-60
2023/08/21 16:29:22;;;;;;;3.13;1.30;;;;;;;29.23;59.71;101090.69;8387476;28;20115;-60
2023/08/21 16:33:23;;;;;;;7.22;1.55;;;;;;;29.25;59.91;101082.06;8386591;28;20028;-60
2023/08/21 16:37:23;;;;;;;9.83;1.70;;;;;;;29.19;59.53;101078.34;8386847;28;20119;-60
2023/08/21 16:41:24;;;;;;;4.38;1.20;;;;;;;29.10;60.61;101079.00;8389379;28;20301;-60
2023/08/21 16:45:24;;;;;;;6.15;1.77;;;;;;;29.09;60.44;101086.50;8388442;28;20506;-60
2023/08/21 16:49:25;;;;;;;3.67;1.30;;;;;;;28.87;60.45;101082.66;8389157;28;20446;-60
2023/08/21 16:53:25;;;;;;;2.55;1.30;;;;;;;28.90;59.92;101073.00;8386604;28;20425;-61
2023/08/21 16:57:26;;;;;;;9.52;1.33;;;;;;;28.89;60.42;101074.91;8386355;28;20384;-60
2023/08/21 17:01:27;;;;;;;6.90;1.73;;;;;;;28.82;60.35;101071.44;8387905;28;20556;-60
2023/08/21 17:05:27;;;;;;;6.72;1.63;;;;;;;28.76;61.22;101077.13;8386880;28;20120;-60
2023/08/21 17:09:29;;;;;;;6.15;1.67;;;;;;;28.66;60.73;101066.59;8387386;28;20405;-60
2023/08/21 17:13:29;;;;;;;6.32;1.77;;;;;;;28.55;61.04;101061.94;8386214;28;20045;-60
2023/08/21 17:17:30;;;;;;;2.90;1.40;;;;;;;28.46;61.62;101055.03;8386493;28;20106;-60
2023/08/21 17:21:31;;;;;;;4.18;1.25;;;;;;;28.44;61.00;101057.19;8386218;28;20378;-60
2023/08/21 17:25:31;;;;;;;4.38;1.75;;;;;;;28.40;61.64;101058.78;8387850;28;20124;-60
2023/08/21 17:29:32;;;;;;;4.32;1.20;;;;;;;28.40;61.90;101065.19;8386782;28;20090;-61
2023/08/21 17:33:32;;;;;;;7.75;1.42;;;;;;;28.34;61.63;101062.53;8384716;28;20477;-61
2023/08/21 17:37:33;;;;;;;4.70;1.50;;;;;;;28.32;61.23;101053.56;8386911;28;20554;-61
2023/08/21 17:41:33;;;;;;;5.63;1.58;;;;;;;28.22;61.56;101053.34;8386227;28;20589;-63
2023/08/21 17:45:33;;;;;;;5.50;1.60;;;;;;;28.17;62.12;101067.13;8386642;28;20063;-63
2023/08/21 17:49:34;;;;;;;6.15;1.95;;;;;;;28.12;62.81;101075.38;8385632;28;20055;-64
2023/08/21 17:53:34;;;;;;;5.57;1.30;;;;;;;28.07;63.07;101078.00;8385945;28;20045;-61
2023/08/21 17:57:36;;;;;;;5.37;1.53;;;;;;;27.95;63.76;101068.81;8386924;28;20044;-61
2023/08/21 18:01:37;;;;;;;4.80;1.40;;;;;;;27.91;63.94;101071.25;8385659;28;20709;-60
2023/08/21 18:05:37;;;;;;;4.25;1.55;;;;;;;27.79;64.00;101067.56;8386607;28;20055;-60
2023/08/21 18:09:38;;;;;;;5.72;1.48;;;;;;;27.65;64.67;101056.88;8383607;28;20494;-60
2023/08/21 18:13:38;;;;;;;3.85;1.75;;;;;;;27.64;64.55;101060.75;8385709;28;20056;-60
2023/08/21 18:17:39;;;;;;;7.97;1.98;;;;;;;27.53;65.29;101058.81;8386008;28;20452;-60
2023/08/21 18:21:39;;;;;;;7.55;1.67;;;;;;;27.35;66.75;101067.22;8386043;28;20500;-60
2023/08/21 18:25:40;;;;;;;8.03;1.77;;;;;;;27.20;67.13;101072.31;8383020;28;20859;-59
2023/08/21 18:29:40;;;;;;;7.30;1.98;;;;;;;27.01;67.88;101070.69;8384102;28;20404;-59
2023/08/21 18:33:41;;;;;;;6.45;1.40;;;;;;;26.87;68.64;101075.56;8382909;28;20051;-59